Itauba, Brazil
Current Conditions -  °F | °C
As of 1:00 PM on Friday 31 Oct 2014 (Local Time) from SBAT Reporting Station
Few Clouds Few Clouds  
Wind Chill: 93°   Ceiling: Unl
Heat Index: 103°   Visibility: 6mi
Dew Point: 73°   Wind: 6mph
Humidity: 52%   Direction: 110°ESE
Pressure: 29.88"   Gusts: NA
Location:  11.06°S, 55.28°W
Report Text: SBAT 311600Z 11005KT 9999 FEW025 FEW030TCU 34/23 Q1012
Loading
Personal Weather Stations






























Interactive Weather Map
Tropical Storm Tracking
New forecast layout! Learn more

10-Day Weather Forecast

Advertisements
Track Severe Weather on mobile